sensor_id;sensor_type;location;lat;lon;timestamp;pressure;altitude;pressure_sealevel;temperature;humidity
56006;BME280;41888;44.696;10.522;2023-04-05T00:01:49;100719.41;;;2.90;87.14
56006;BME280;41888;44.696;10.522;2023-04-05T00:04:16;100716.63;;;2.74;86.50
56006;BME280;41888;44.696;10.522;2023-04-05T00:06:47;100710.72;;;2.90;81.41
56006;BME280;41888;44.696;10.522;2023-04-05T00:09:18;100717.38;;;2.84;73.08
56006;BME280;41888;44.696;10.522;2023-04-05T00:11:46;100713.25;;;3.00;68.67
56006;BME280;41888;44.696;10.522;2023-04-05T00:14:12;100709.56;;;3.28;66.18
56006;BME280;41888;44.696;10.522;2023-04-05T00:16:39;100715.44;;;3.39;64.12
56006;BME280;41888;44.696;10.522;2023-04-05T00:19:05;100713.34;;;3.43;63.85
56006;BME280;41888;44.696;10.522;2023-04-05T00:21:32;100713.41;;;3.51;63.77
56006;BME280;41888;44.696;10.522;2023-04-05T00:23:59;100712.34;;;3.62;62.39
56006;BME280;41888;44.696;10.522;2023-04-05T00:26:25;100722.41;;;3.66;62.95
56006;BME280;41888;44.696;10.522;2023-04-05T00:28:51;100720.81;;;3.73;61.68
56006;BME280;41888;44.696;10.522;2023-04-05T00:31:18;100711.72;;;3.68;62.10
56006;BME280;41888;44.696;10.522;2023-04-05T00:33:45;100714.34;;;3.86;61.50
56006;BME280;41888;44.696;10.522;2023-04-05T00:36:18;100717.41;;;3.81;61.84
56006;BME280;41888;44.696;10.522;2023-04-05T00:38:46;100708.41;;;3.92;60.66
56006;BME280;41888;44.696;10.522;2023-04-05T00:41:13;100720.09;;;3.89;61.50
56006;BME280;41888;44.696;10.522;2023-04-05T00:43:40;100715.53;;;3.91;61.50
56006;BME280;41888;44.696;10.522;2023-04-05T00:46:07;100708.41;;;3.92;61.75
56006;BME280;41888;44.696;10.522;2023-04-05T00:48:34;100704.66;;;3.94;62.27
56006;BME280;41888;44.696;10.522;2023-04-05T00:51:01;100708.84;;;4.05;62.18
56006;BME280;41888;44.696;10.522;2023-04-05T00:53:28;100712.88;;;4.17;61.33
56006;BME280;41888;44.696;10.522;2023-04-05T00:55:54;100713.59;;;4.27;61.08
56006;BME280;41888;44.696;10.522;2023-04-05T00:58:21;100718.53;;;4.30;60.66
56006;BME280;41888;44.696;10.522;2023-04-05T01:01:01;100716.94;;;4.45;60.22
56006;BME280;41888;44.696;10.522;2023-04-05T01:03:33;100714.50;;;4.44;63.34
56006;BME280;41888;44.696;10.522;2023-04-05T01:11:56;100717.56;;;4.05;73.69
56006;BME280;41888;44.696;10.522;2023-04-05T01:14:23;100723.00;;;3.60;75.62
56006;BME280;41888;44.696;10.522;2023-04-05T01:16:49;100720.69;;;3.39;75.21
56006;BME280;41888;44.696;10.522;2023-04-05T01:19:16;100720.34;;;3.17;74.43
56006;BME280;41888;44.696;10.522;2023-04-05T01:24:50;100725.75;;;3.15;76.90
56006;BME280;41888;44.696;10.522;2023-04-05T01:27:30;100734.91;;;3.11;77.18
56006;BME280;41888;44.696;10.522;2023-04-05T01:30:08;100731.66;;;3.00;77.94
56006;BME280;41888;44.696;10.522;2023-04-05T01:33:23;100720.16;;;3.18;75.54
56006;BME280;41888;44.696;10.522;2023-04-05T01:35:55;100729.28;;;3.06;77.10
56006;BME280;41888;44.696;10.522;2023-04-05T01:38:25;100727.31;;;2.90;77.06
56006;BME280;41888;44.696;10.522;2023-04-05T01:40:53;100732.50;;;3.00;78.06
56006;BME280;41888;44.696;10.522;2023-04-05T01:43:20;100733.88;;;2.77;80.42
56006;BME280;41888;44.696;10.522;2023-04-05T01:45:46;100733.41;;;2.81;80.11
56006;BME280;41888;44.696;10.522;2023-04-05T01:48:13;100730.47;;;2.67;82.25
56006;BME280;41888;44.696;10.522;2023-04-05T01:50:40;100735.53;;;2.50;83.53
56006;BME280;41888;44.696;10.522;2023-04-05T01:53:09;100737.50;;;2.48;85.18
56006;BME280;41888;44.696;10.522;2023-04-05T01:55:35;100737.22;;;2.42;85.44
56006;BME280;41888;44.696;10.522;2023-04-05T01:58:02;100739.84;;;2.42;83.81
56006;BME280;41888;44.696;10.522;2023-04-05T02:00:28;100736.16;;;2.35;81.55
56006;BME280;41888;44.696;10.522;2023-04-05T02:02:54;100733.31;;;2.19;84.39
56006;BME280;41888;44.696;10.522;2023-04-05T02:05:20;100737.44;;;2.21;81.92
56006;BME280;41888;44.696;10.522;2023-04-05T02:07:46;100730.44;;;2.02;85.12
56006;BME280;41888;44.696;10.522;2023-04-05T02:10:14;100737.06;;;2.06;84.36
56006;BME280;41888;44.696;10.522;2023-04-05T02:12:40;100737.88;;;2.17;83.50
56006;BME280;41888;44.696;10.522;2023-04-05T02:15:07;100738.13;;;2.23;84.06
56006;BME280;41888;44.696;10.522;2023-04-05T02:17:33;100725.19;;;2.02;84.83
56006;BME280;41888;44.696;10.522;2023-04-05T02:20:07;100733.06;;;2.02;85.77
56006;BME280;41888;44.696;10.522;2023-04-05T02:22:35;100732.81;;;2.05;83.78
56006;BME280;41888;44.696;10.522;2023-04-05T02:25:02;100733.06;;;2.02;84.11
56006;BME280;41888;44.696;10.522;2023-04-05T02:27:30;100728.94;;;2.00;83.23
56006;BME280;41888;44.696;10.522;2023-04-05T02:29:57;100726.31;;;2.00;83.57
56006;BME280;41888;44.696;10.522;2023-04-05T02:32:24;100725.03;;;2.13;83.95
56006;BME280;41888;44.696;10.522;2023-04-05T02:34:50;100727.09;;;2.20;84.43
56006;BME280;41888;44.696;10.522;2023-04-05T02:37:18;100727.81;;;2.02;87.25
56006;BME280;41888;44.696;10.522;2023-04-05T02:39:44;100720.28;;;1.80;88.63
56006;BME280;41888;44.696;10.522;2023-04-05T02:42:11;100715.88;;;1.71;88.08
56006;BME280;41888;44.696;10.522;2023-04-05T02:44:37;100718.53;;;1.52;90.16
56006;BME280;41888;44.696;10.522;2023-04-05T02:47:03;100715.66;;;1.36;91.06
56006;BME280;41888;44.696;10.522;2023-04-05T02:49:29;100715.38;;;1.19;93.24
56006;BME280;41888;44.696;10.522;2023-04-05T02:51:55;100714.13;;;1.14;92.60
56006;BME280;41888;44.696;10.522;2023-04-05T02:54:22;100717.56;;;0.95;93.74
56006;BME280;41888;44.696;10.522;2023-04-05T02:56:48;100711.50;;;1.23;91.74
56006;BME280;41888;44.696;10.522;2023-04-05T02:59:15;100717.31;;;1.37;91.00
56006;BME280;41888;44.696;10.522;2023-04-05T03:01:42;100719.78;;;1.48;90.49
56006;BME280;41888;44.696;10.522;2023-04-05T03:04:09;100719.22;;;1.54;88.99
56006;BME280;41888;44.696;10.522;2023-04-05T03:06:38;100720.75;;;1.37;92.85
56006;BME280;41888;44.696;10.522;2023-04-05T03:09:04;100723.22;;;1.29;94.71
56006;BME280;41888;44.696;10.522;2023-04-05T03:11:31;100723.94;;;1.21;93.95
56006;BME280;41888;44.696;10.522;2023-04-05T03:13:57;100727.50;;;1.20;92.72
56006;BME280;41888;44.696;10.522;2023-04-05T03:16:24;100729.44;;;1.18;92.48
56006;BME280;41888;44.696;10.522;2023-04-05T03:18:50;100728.06;;;1.24;92.56
56006;BME280;41888;44.696;10.522;2023-04-05T03:21:16;100723.06;;;1.59;91.09
56006;BME280;41888;44.696;10.522;2023-04-05T03:23:43;100723.09;;;1.69;89.79
56006;BME280;41888;44.696;10.522;2023-04-05T03:26:11;100719.19;;;1.73;91.57
56006;BME280;41888;44.696;10.522;2023-04-05T03:28:41;100730.91;;;1.88;90.87
56006;BME280;41888;44.696;10.522;2023-04-05T03:31:09;100727.34;;;1.80;90.06
56006;BME280;41888;44.696;10.522;2023-04-05T03:33:35;100723.91;;;1.60;91.16
56006;BME280;41888;44.696;10.522;2023-04-05T03:36:02;100733.00;;;1.65;91.34
56006;BME280;41888;44.696;10.522;2023-04-05T03:38:28;100727.09;;;1.35;92.85
56006;BME280;41888;44.696;10.522;2023-04-05T03:40:57;100725.59;;;1.32;93.07
56006;BME280;41888;44.696;10.522;2023-04-05T03:43:23;100723.09;;;1.21;93.02
56006;BME280;41888;44.696;10.522;2023-04-05T03:45:50;100730.50;;;0.87;94.67
56006;BME280;41888;44.696;10.522;2023-04-05T03:48:16;100734.66;;;0.90;94.78
56006;BME280;41888;44.696;10.522;2023-04-05T03:50:45;100731.19;;;0.89;95.81
56006;BME280;41888;44.696;10.522;2023-04-05T03:53:12;100733.00;;;1.17;95.51
56006;BME280;41888;44.696;10.522;2023-04-05T03:55:38;100745.69;;;1.12;96.14
56006;BME280;41888;44.696;10.522;2023-04-05T03:58:05;100740.19;;;1.35;94.52
56006;BME280;41888;44.696;10.522;2023-04-05T04:00:31;100743.53;;;1.37;94.88
56006;BME280;41888;44.696;10.522;2023-04-05T04:02:57;100737.56;;;1.15;96.62
56006;BME280;41888;44.696;10.522;2023-04-05T04:05:23;100735.91;;;0.95;96.42
56006;BME280;41888;44.696;10.522;2023-04-05T04:07:49;100736.88;;;1.04;95.80
56006;BME280;41888;44.696;10.522;2023-04-05T04:10:16;100744.19;;;1.00;95.72
56006;BME280;41888;44.696;10.522;2023-04-05T04:12:43;100735.59;;;0.79;97.70
56006;BME280;41888;44.696;10.522;2023-04-05T04:15:10;100734.88;;;0.77;97.86
56006;BME280;41888;44.696;10.522;2023-04-05T04:17:37;100736.13;;;0.73;98.52
56006;BME280;41888;44.696;10.522;2023-04-05T04:20:04;100735.28;;;0.72;99.35
56006;BME280;41888;44.696;10.522;2023-04-05T04:22:37;100742.84;;;0.66;99.32
56006;BME280;41888;44.696;10.522;2023-04-05T04:25:07;100742.88;;;0.75;98.84
56006;BME280;41888;44.696;10.522;2023-04-05T04:27:41;100743.13;;;0.63;100.00
56006;BME280;41888;44.696;10.522;2023-04-05T04:30:10;100743.66;;;0.57;99.79
56006;BME280;41888;44.696;10.522;2023-04-05T04:32:37;100745.19;;;0.69;99.36
56006;BME280;41888;44.696;10.522;2023-04-05T04:35:25;100739.94;;;0.69;99.55
56006;BME280;41888;44.696;10.522;2023-04-05T04:37:59;100741.47;;;0.62;99.43
56006;BME280;41888;44.696;10.522;2023-04-05T04:42:57;100752.78;;;0.62;100.00
56006;BME280;41888;44.696;10.522;2023-04-05T04:45:25;100739.69;;;0.62;100.00
56006;BME280;41888;44.696;10.522;2023-04-05T04:47:51;100745.03;;;0.61;100.00
56006;BME280;41888;44.696;10.522;2023-04-05T04:50:19;100748.56;;;0.40;100.00
56006;BME280;41888;44.696;10.522;2023-04-05T04:52:46;100754.38;;;0.54;100.00
56006;BME280;41888;44.696;10.522;2023-04-05T04:55:13;100758.25;;;0.59;100.00
56006;BME280;41888;44.696;10.522;2023-04-05T04:57:42;100755.00;;;0.76;100.00
56006;BME280;41888;44.696;10.522;2023-04-05T05:00:09;100756.66;;;0.68;100.00
56006;BME280;41888;44.696;10.522;2023-04-05T05:02:41;100753.53;;;0.53;100.00
56006;BME280;41888;44.696;10.522;2023-04-05T05:05:09;100757.91;;;0.43;100.00
56006;BME280;41888;44.696;10.522;2023-04-05T05:07:37;100764.06;;;0.63;100.00
56006;BME280;41888;44.696;10.522;2023-04-05T05:10:04;100757.66;;;0.46;100.00
56006;BME280;41888;44.696;10.522;2023-04-05T05:12:31;100758.47;;;0.37;100.00
56006;BME280;41888;44.696;10.522;2023-04-05T05:14:57;100755.97;;;0.35;100.00
56006;BME280;41888;44.696;10.522;2023-04-05T05:17:24;100766.34;;;0.47;100.00
56006;BME280;41888;44.696;10.522;2023-04-05T05:19:51;100774.31;;;0.85;100.00
56006;BME280;41888;44.696;10.522;2023-04-05T05:22:17;100756.75;;;1.35;95.80
56006;BME280;41888;44.696;10.522;2023-04-05T05:24:44;100768.03;;;1.93;90.75
56006;BME280;41888;44.696;10.522;2023-04-05T05:27:11;100768.91;;;2.31;87.05
56006;BME280;41888;44.696;10.522;2023-04-05T05:29:37;100778.06;;;2.27;86.74
56006;BME280;41888;44.696;10.522;2023-04-05T05:32:03;100776.25;;;2.18;88.06
56006;BME280;41888;44.696;10.522;2023-04-05T05:34:30;100776.56;;;2.15;88.29
56006;BME280;41888;44.696;10.522;2023-04-05T05:36:56;100780.47;;;2.47;87.24
56006;BME280;41888;44.696;10.522;2023-04-05T05:39:22;100780.75;;;3.26;82.97
56006;BME280;41888;44.696;10.522;2023-04-05T05:41:49;100780.41;;;4.00;77.29
56006;BME280;41888;44.696;10.522;2023-04-05T05:44:15;100777.50;;;4.37;74.64
56006;BME280;41888;44.696;10.522;2023-04-05T05:46:41;100776.00;;;5.10;69.37
56006;BME280;41888;44.696;10.522;2023-04-05T05:49:07;100774.63;;;5.65;66.61
56006;BME280;41888;44.696;10.522;2023-04-05T05:51:34;100776.06;;;6.87;61.17
56006;BME280;41888;44.696;10.522;2023-04-05T05:54:00;100784.53;;;7.13;59.56
56006;BME280;41888;44.696;10.522;2023-04-05T05:56:27;100787.06;;;7.30;57.86
56006;BME280;41888;44.696;10.522;2023-04-05T05:58:53;100777.16;;;6.54;60.18
56006;BME280;41888;44.696;10.522;2023-04-05T06:01:19;100784.84;;;6.08;62.70
56006;BME280;41888;44.696;10.522;2023-04-05T06:03:47;100785.84;;;6.15;63.09
56006;BME280;41888;44.696;10.522;2023-04-05T06:06:15;100787.66;;;5.74;64.38
56006;BME280;41888;44.696;10.522;2023-04-05T06:08:41;100793.41;;;5.53;66.10
56006;BME280;41888;44.696;10.522;2023-04-05T06:11:16;100790.44;;;5.73;66.33
56006;BME280;41888;44.696;10.522;2023-04-05T06:13:43;100787.75;;;6.46;63.09
56006;BME280;41888;44.696;10.522;2023-04-05T06:16:09;100790.16;;;7.64;58.40
56006;BME280;41888;44.696;10.522;2023-04-05T06:18:35;100787.78;;;8.73;54.52
56006;BME280;41888;44.696;10.522;2023-04-05T06:21:01;100791.56;;;8.64;54.17
56006;BME280;41888;44.696;10.522;2023-04-05T06:23:28;100797.38;;;8.89;54.08
56006;BME280;41888;44.696;10.522;2023-04-05T06:25:55;100792.81;;;8.01;56.70
56006;BME280;41888;44.696;10.522;2023-04-05T06:28:22;100794.69;;;6.94;60.77
56006;BME280;41888;44.696;10.522;2023-04-05T06:30:48;100784.47;;;6.44;64.64
56006;BME280;41888;44.696;10.522;2023-04-05T06:33:14;100790.13;;;6.16;67.03
56006;BME280;41888;44.696;10.522;2023-04-05T06:35:40;100791.47;;;6.75;64.64
56006;BME280;41888;44.696;10.522;2023-04-05T06:38:06;100794.22;;;6.90;63.83
56006;BME280;41888;44.696;10.522;2023-04-05T06:40:33;100795.28;;;6.73;64.02
56006;BME280;41888;44.696;10.522;2023-04-05T06:42:59;100790.91;;;6.41;64.24
56006;BME280;41888;44.696;10.522;2023-04-05T06:45:25;100791.88;;;6.95;62.16
56006;BME280;41888;44.696;10.522;2023-04-05T06:47:51;100798.91;;;7.64;58.66
56006;BME280;41888;44.696;10.522;2023-04-05T06:50:17;100800.34;;;8.13;57.65
56006;BME280;41888;44.696;10.522;2023-04-05T06:52:43;100805.69;;;9.94;51.54
56006;BME280;41888;44.696;10.522;2023-04-05T06:55:10;100804.03;;;12.17;46.93
56006;BME280;41888;44.696;10.522;2023-04-05T06:57:36;100810.66;;;13.43;42.48
56006;BME280;41888;44.696;10.522;2023-04-05T07:00:03;100805.66;;;14.59;40.03
56006;BME280;41888;44.696;10.522;2023-04-05T07:02:35;100799.94;;;14.38;39.88
56006;BME280;41888;44.696;10.522;2023-04-05T07:05:01;100802.72;;;15.04;38.82
56006;BME280;41888;44.696;10.522;2023-04-05T07:07:31;100800.41;;;14.71;38.72
56006;BME280;41888;44.696;10.522;2023-04-05T07:09:58;100801.28;;;13.28;40.63
56006;BME280;41888;44.696;10.522;2023-04-05T07:12:24;100807.31;;;12.13;42.99
56006;BME280;41888;44.696;10.522;2023-04-05T07:14:50;100809.94;;;11.80;45.18
56006;BME280;41888;44.696;10.522;2023-04-05T07:17:16;100810.16;;;11.85;45.75
56006;BME280;41888;44.696;10.522;2023-04-05T07:19:43;100807.09;;;11.88;45.56
56006;BME280;41888;44.696;10.522;2023-04-05T07:22:09;100810.69;;;11.54;46.38
56006;BME280;41888;44.696;10.522;2023-04-05T07:24:35;100809.50;;;11.02;47.97
56006;BME280;41888;44.696;10.522;2023-04-05T07:27:01;100809.19;;;10.78;48.64
56006;BME280;41888;44.696;10.522;2023-04-05T07:29:29;100809.19;;;10.78;47.61
56006;BME280;41888;44.696;10.522;2023-04-05T07:31:55;100816.44;;;10.28;48.60
56006;BME280;41888;44.696;10.522;2023-04-05T07:34:21;100811.50;;;10.04;48.09
56006;BME280;41888;44.696;10.522;2023-04-05T07:36:47;100811.25;;;9.99;47.68
56006;BME280;41888;44.696;10.522;2023-04-05T07:39:15;100811.28;;;10.05;47.24
56006;BME280;41888;44.696;10.522;2023-04-05T07:41:41;100805.38;;;10.03;47.38
56006;BME280;41888;44.696;10.522;2023-04-05T07:44:07;100808.69;;;10.12;47.75
56006;BME280;41888;44.696;10.522;2023-04-05T07:46:34;100809.31;;;10.35;45.74
56006;BME280;41888;44.696;10.522;2023-04-05T07:49:00;100812.84;;;10.42;45.90
56006;BME280;41888;44.696;10.522;2023-04-05T07:51:26;100816.97;;;10.45;46.25
56006;BME280;41888;44.696;10.522;2023-04-05T07:53:52;100814.78;;;10.55;45.20
56006;BME280;41888;44.696;10.522;2023-04-05T07:56:19;100816.59;;;10.54;45.37
56006;BME280;41888;44.696;10.522;2023-04-05T07:58:45;100817.44;;;10.55;45.97
56006;BME280;41888;44.696;10.522;2023-04-05T08:01:12;100816.38;;;10.49;46.53
56006;BME280;41888;44.696;10.522;2023-04-05T08:03:39;100821.97;;;10.61;47.17
56006;BME280;41888;44.696;10.522;2023-04-05T08:06:15;100820.75;;;10.64;46.84
56006;BME280;41888;44.696;10.522;2023-04-05T08:08:47;100819.38;;;10.68;46.77
56006;BME280;41888;44.696;10.522;2023-04-05T08:11:13;100816.22;;;10.92;46.32
56006;BME280;41888;44.696;10.522;2023-04-05T08:13:39;100818.66;;;10.87;44.47
56006;BME280;41888;44.696;10.522;2023-04-05T08:16:09;100823.94;;;10.80;44.52
56006;BME280;41888;44.696;10.522;2023-04-05T08:18:36;100822.59;;;10.63;44.07
56006;BME280;41888;44.696;10.522;2023-04-05T08:21:02;100824.75;;;10.81;42.64
56006;BME280;41888;44.696;10.522;2023-04-05T08:23:29;100824.72;;;10.74;42.61
56006;BME280;41888;44.696;10.522;2023-04-05T08:25:56;100824.69;;;10.68;42.30
56006;BME280;41888;44.696;10.522;2023-04-05T08:28:22;100826.25;;;10.28;40.13
56006;BME280;41888;44.696;10.522;2023-04-05T08:30:52;100825.56;;;10.19;40.58
56006;BME280;41888;44.696;10.522;2023-04-05T08:33:20;100820.44;;;9.18;43.15
56006;BME280;41888;44.696;10.522;2023-04-05T08:35:46;100826.59;;;9.04;41.80
56006;BME280;41888;44.696;10.522;2023-04-05T08:38:12;100824.50;;;8.55;43.00
56006;BME280;41888;44.696;10.522;2023-04-05T08:40:43;100833.06;;;9.01;44.42
56006;BME280;41888;44.696;10.522;2023-04-05T08:43:21;100826.72;;;9.67;43.81
56006;BME280;41888;44.696;10.522;2023-04-05T08:45:52;100826.66;;;10.10;43.90
56006;BME280;41888;44.696;10.522;2023-04-05T08:48:18;100829.28;;;10.25;42.80
56006;BME280;41888;44.696;10.522;2023-04-05T08:50:52;100819.47;;;10.04;43.29
56006;BME280;41888;44.696;10.522;2023-04-05T08:53:19;100825.34;;;9.99;42.64
56006;BME280;41888;44.696;10.522;2023-04-05T08:55:50;100831.72;;;9.77;42.49
56006;BME280;41888;44.696;10.522;2023-04-05T08:58:21;100821.81;;;9.14;42.63
56006;BME280;41888;44.696;10.522;2023-04-05T09:00:49;100828.78;;;9.36;41.10
56006;BME280;41888;44.696;10.522;2023-04-05T09:03:29;100835.84;;;9.44;40.12
56006;BME280;41888;44.696;10.522;2023-04-05T09:05:58;100828.06;;;9.42;39.66
56006;BME280;41888;44.696;10.522;2023-04-05T09:08:24;100830.31;;;10.02;38.98
56006;BME280;41888;44.696;10.522;2023-04-05T09:10:51;100830.22;;;9.53;37.83
56006;BME280;41888;44.696;10.522;2023-04-05T09:13:17;100833.53;;;8.90;39.14
56006;BME280;41888;44.696;10.522;2023-04-05T09:15:44;100827.78;;;9.37;39.69
56006;BME280;41888;44.696;10.522;2023-04-05T09:18:11;100829.91;;;9.27;39.45
56006;BME280;41888;44.696;10.522;2023-04-05T09:20:38;100827.63;;;9.60;39.54
56006;BME280;41888;44.696;10.522;2023-04-05T09:23:04;100825.56;;;10.19;38.92
56006;BME280;41888;44.696;10.522;2023-04-05T09:25:37;100827.44;;;10.53;38.38
56006;BME280;41888;44.696;10.522;2023-04-05T09:28:08;100830.50;;;10.22;38.60
56006;BME280;41888;44.696;10.522;2023-04-05T09:30:35;100822.75;;;10.27;39.43
56006;BME280;41888;44.696;10.522;2023-04-05T09:33:03;100818.06;;;10.29;39.29
56006;BME280;41888;44.696;10.522;2023-04-05T09:35:32;100823.69;;;10.75;38.17
56006;BME280;41888;44.696;10.522;2023-04-05T09:38:03;100819.50;;;10.59;37.24
56006;BME280;41888;44.696;10.522;2023-04-05T09:40:48;100816.38;;;10.84;35.91
56006;BME280;41888;44.696;10.522;2023-04-05T09:43:40;100810.75;;;10.66;34.80
56006;BME280;41888;44.696;10.522;2023-04-05T09:46:15;100804.38;;;10.60;34.19
56006;BME280;41888;44.696;10.522;2023-04-05T09:48:53;100818.00;;;10.78;35.29
56006;BME280;41888;44.696;10.522;2023-04-05T09:51:19;100813.97;;;10.95;34.80
56006;BME280;41888;44.696;10.522;2023-04-05T09:54:05;100807.31;;;9.73;35.78
56006;BME280;41888;44.696;10.522;2023-04-05T09:56:34;100807.53;;;9.93;36.38
56006;BME280;41888;44.696;10.522;2023-04-05T09:59:05;100816.78;;;9.76;35.95
56006;BME280;41888;44.696;10.522;2023-04-05T10:01:32;100810.13;;;9.87;35.45
56006;BME280;41888;44.696;10.522;2023-04-05T10:03:59;100801.00;;;10.45;34.99
56006;BME280;41888;44.696;10.522;2023-04-05T10:06:36;100805.09;;;10.82;34.43
56006;BME280;41888;44.696;10.522;2023-04-05T10:09:03;100808.81;;;11.35;33.55
56006;BME280;41888;44.696;10.522;2023-04-05T10:11:31;100801.66;;;11.35;34.24
56006;BME280;41888;44.696;10.522;2023-04-05T10:14:01;100804.31;;;10.88;33.25
56006;BME280;41888;44.696;10.522;2023-04-05T10:16:50;100805.88;;;11.17;33.15
56006;BME280;41888;44.696;10.522;2023-04-05T10:19:28;100804.44;;;11.14;33.77
56006;BME280;41888;44.696;10.522;2023-04-05T10:22:01;100817.03;;;11.47;34.21
56006;BME280;41888;44.696;10.522;2023-04-05T10:27:13;100802.50;;;10.95;33.55
56006;BME280;41888;44.696;10.522;2023-04-05T10:30:04;100803.03;;;11.25;33.74
56006;BME280;41888;44.696;10.522;2023-04-05T10:35:59;100802.47;;;11.49;33.55
56006;BME280;41888;44.696;10.522;2023-04-05T10:40:38;100798.59;;;10.91;34.26
56006;BME280;41888;44.696;10.522;2023-04-05T10:43:16;100784.69;;;11.63;33.62
56006;BME280;41888;44.696;10.522;2023-04-05T10:45:44;100788.78;;;11.52;34.41
56006;BME280;41888;44.696;10.522;2023-04-05T10:51:02;100778.28;;;11.37;34.13
56006;BME280;41888;44.696;10.522;2023-04-05T10:53:30;100773.03;;;12.16;33.87
56006;BME280;41888;44.696;10.522;2023-04-05T10:55:57;100771.81;;;12.25;34.27
56006;BME280;41888;44.696;10.522;2023-04-05T10:58:26;100778.31;;;10.90;34.78
56006;BME280;41888;44.696;10.522;2023-04-05T11:00:54;100787.09;;;10.84;34.62
56006;BME280;41888;44.696;10.522;2023-04-05T11:03:52;100771.47;;;10.74;34.97
56006;BME280;41888;44.696;10.522;2023-04-05T11:11:41;100767.66;;;11.51;33.47
56006;BME280;41888;44.696;10.522;2023-04-05T11:14:45;100766.94;;;11.16;33.56
56006;BME280;41888;44.696;10.522;2023-04-05T11:17:26;100766.44;;;11.60;33.51
56006;BME280;41888;44.696;10.522;2023-04-05T11:20:05;100763.22;;;11.84;32.89
56006;BME280;41888;44.696;10.522;2023-04-05T11:22:36;100761.06;;;11.40;33.79
56006;BME280;41888;44.696;10.522;2023-04-05T11:25:02;100765.97;;;11.43;33.05
56006;BME280;41888;44.696;10.522;2023-04-05T11:27:33;100757.94;;;11.10;34.74
56006;BME280;41888;44.696;10.522;2023-04-05T11:30:04;100756.16;;;11.43;34.06
56006;BME280;41888;44.696;10.522;2023-04-05T11:32:42;100754.22;;;11.11;34.21
56006;BME280;41888;44.696;10.522;2023-04-05T11:35:16;100748.19;;;11.57;34.15
56006;BME280;41888;44.696;10.522;2023-04-05T11:40:30;100735.88;;;12.35;33.40
56006;BME280;41888;44.696;10.522;2023-04-05T11:43:07;100737.34;;;12.17;34.32
56006;BME280;41888;44.696;10.522;2023-04-05T11:45:36;100738.91;;;11.33;34.61
56006;BME280;41888;44.696;10.522;2023-04-05T11:48:10;100739.44;;;11.89;35.59
56006;BME280;41888;44.696;10.522;2023-04-05T11:50:38;100730.56;;;11.69;34.13
56006;BME280;41888;44.696;10.522;2023-04-05T11:53:11;100745.50;;;11.43;34.29
56006;BME280;41888;44.696;10.522;2023-04-05T11:55:38;100730.69;;;11.15;35.09
56006;BME280;41888;44.696;10.522;2023-04-05T12:00:42;100721.47;;;12.49;34.81
56006;BME280;41888;44.696;10.522;2023-04-05T12:03:15;100711.09;;;12.14;34.23
56006;BME280;41888;44.696;10.522;2023-04-05T12:05:50;100720.06;;;12.40;34.25
56006;BME280;41888;44.696;10.522;2023-04-05T12:08:17;100720.50;;;12.23;34.32
56006;BME280;41888;44.696;10.522;2023-04-05T12:10:51;100715.63;;;11.74;35.07
56006;BME280;41888;44.696;10.522;2023-04-05T12:13:25;100711.91;;;11.69;35.10
56006;BME280;41888;44.696;10.522;2023-04-05T12:15:52;100710.81;;;12.42;34.34
56006;BME280;41888;44.696;10.522;2023-04-05T12:18:18;100717.91;;;11.84;34.58
56006;BME280;41888;44.696;10.522;2023-04-05T12:20:44;100704.34;;;12.05;35.14
56006;BME280;41888;44.696;10.522;2023-04-05T12:23:11;100704.94;;;12.14;34.80
56006;BME280;41888;44.696;10.522;2023-04-05T12:25:37;100710.63;;;12.37;34.69
56006;BME280;41888;44.696;10.522;2023-04-05T12:28:05;100704.97;;;12.72;35.67
56006;BME280;41888;44.696;10.522;2023-04-05T12:30:32;100707.63;;;12.72;33.64
56006;BME280;41888;44.696;10.522;2023-04-05T12:33:08;100702.94;;;11.90;34.93
56006;BME280;41888;44.696;10.522;2023-04-05T12:35:35;100695.22;;;12.33;35.24
56006;BME280;41888;44.696;10.522;2023-04-05T12:38:02;100694.13;;;12.60;35.92
56006;BME280;41888;44.696;10.522;2023-04-05T12:40:31;100700.63;;;12.77;35.42
56006;BME280;41888;44.696;10.522;2023-04-05T12:43:05;100698.41;;;12.74;34.39
56006;BME280;41888;44.696;10.522;2023-04-05T12:45:32;100689.75;;;12.72;34.75
56006;BME280;41888;44.696;10.522;2023-04-05T12:48:19;100691.91;;;12.44;35.97
56006;BME280;41888;44.696;10.522;2023-04-05T12:50:47;100684.16;;;12.29;36.13
56006;BME280;41888;44.696;10.522;2023-04-05T12:53:21;100683.16;;;12.23;36.31
56006;BME280;41888;44.696;10.522;2023-04-05T12:55:50;100681.13;;;12.06;36.23
56006;BME280;41888;44.696;10.522;2023-04-05T12:58:21;100684.19;;;12.22;36.19
56006;BME280;41888;44.696;10.522;2023-04-05T13:00:48;100680.09;;;12.13;35.91
56006;BME280;41888;44.696;10.522;2023-04-05T13:03:19;100681.88;;;12.33;35.45
56006;BME280;41888;44.696;10.522;2023-04-05T13:05:46;100681.75;;;12.72;34.92
56006;BME280;41888;44.696;10.522;2023-04-05T13:08:14;100685.16;;;12.41;35.13
56006;BME280;41888;44.696;10.522;2023-04-05T13:10:41;100678.63;;;12.37;35.22
56006;BME280;41888;44.696;10.522;2023-04-05T13:13:07;100668.03;;;12.04;35.67
56006;BME280;41888;44.696;10.522;2023-04-05T13:15:33;100669.66;;;12.05;35.26
56006;BME280;41888;44.696;10.522;2023-04-05T13:17:59;100668.16;;;12.29;34.68
56006;BME280;41888;44.696;10.522;2023-04-05T13:20:25;100666.75;;;12.78;34.67
56006;BME280;41888;44.696;10.522;2023-04-05T13:22:52;100667.97;;;12.75;36.21
56006;BME280;41888;44.696;10.522;2023-04-05T13:25:18;100661.00;;;12.23;34.65
56006;BME280;41888;44.696;10.522;2023-04-05T13:27:44;100654.63;;;12.75;34.22